Pathhead, United Kingdom
Current Conditions -  °F | °C
As of 10:20 AM on Friday 24 Oct 2014 (Local Time) from EGPH Reporting Station
Clear Clear  
Wind Chill: 50°   Ceiling: Unl
Heat Index: 50°   Visibility: 6mi
Dew Point: 45°   Wind: 14mph
Humidity: 82%   Direction: 220°SW
Pressure: 29.77"   Gusts: NA
Location:  55.86°N, 2.97°W
Report Text: EGPH 240920Z 22012KT CAVOK 10/07 Q1008
Loading
Personal Weather Stations






























Interactive Weather Map
Tropical Storm Tracking
New forecast layout! Learn more

10-Day Weather Forecast

Advertisements
Track Severe Weather on mobile